Time;durP1;ratioP1;P1;durP2;ratioP2;P2;SDS_P1;SDS_P2;PMS_P1;PMS_P2;Temp;Humidity;BMP_temperature;BMP_pressure;BME280_temperature;BME280_humidity;BME280_pressure;Samples;Min_cycle;Max_cycle;Signal;HPM_P1;HPM_P2
2022/07/14 00:02:05;;;;;;;7.90;3.10;;;;;;;21.06;51.28;98886.89;105876;1278;108931;-67
2022/07/14 00:04:34;;;;;;;4.90;2.80;;;;;;;21.02;51.30;98886.65;105779;1277;99869;-68
2022/07/14 00:07:04;;;;;;;7.50;3.30;;;;;;;20.98;51.33;98886.23;105798;1277;96979;-66
2022/07/14 00:09:36;;;;;;;18.30;3.60;;;;;;;20.93;51.38;98879.09;105813;1278;113274;-68
2022/07/14 00:12:06;;;;;;;6.50;3.10;;;;;;;20.89;51.40;98876.10;105803;1278;97574;-68
2022/07/14 00:14:34;;;;;;;7.80;3.60;;;;;;;20.88;51.24;98874.11;105793;1276;109104;-67
2022/07/14 00:17:02;;;;;;;11.10;3.90;;;;;;;20.87;51.25;98873.70;105805;1276;97870;-67
2022/07/14 00:19:31;;;;;;;5.90;3.00;;;;;;;20.87;51.29;98872.05;105905;1276;97643;-71
2022/07/14 00:22:00;;;;;;;6.90;3.30;;;;;;;20.88;51.40;98872.33;105889;1277;113435;-68
2022/07/14 00:24:28;;;;;;;7.40;3.00;;;;;;;20.87;51.43;98873.70;105897;1276;97599;-73
2022/07/14 00:26:56;;;;;;;9.80;3.20;;;;;;;20.87;51.40;98871.67;105869;1276;108347;-68
2022/07/14 00:29:25;;;;;;;5.50;2.90;;;;;;;20.88;51.30;98869.14;105912;1277;96635;-68
2022/07/14 00:31:56;;;;;;;6.40;3.00;;;;;;;20.89;51.51;98868.78;105922;1276;99230;-69
2022/07/14 00:34:26;;;;;;;10.10;2.80;;;;;;;20.91;51.32;98869.64;105935;1277;113412;-68
2022/07/14 00:36:54;;;;;;;5.10;2.70;;;;;;;20.93;51.40;98867.98;105929;1276;99229;-66
2022/07/14 00:39:21;;;;;;;9.40;2.90;;;;;;;20.96;51.28;98868.24;105889;1277;108360;-68
2022/07/14 00:41:51;;;;;;;8.50;2.80;;;;;;;21.00;51.21;98868.91;105877;1277;96629;-66
2022/07/14 00:44:19;;;;;;;6.00;2.50;;;;;;;21.03;51.21;98871.36;105929;1276;96644;-69
2022/07/14 00:46:48;;;;;;;4.00;2.30;;;;;;;21.08;51.23;98873.70;106029;1276;113459;-69
2022/07/14 00:49:37;;;;;;;4.50;2.70;;;;;;;21.14;51.15;98875.54;106056;1276;99319;-68
2022/07/14 00:52:05;;;;;;;3.80;2.40;;;;;;;21.19;51.08;98870.21;105991;1276;108368;-68
2022/07/14 00:54:33;;;;;;;4.00;2.40;;;;;;;21.23;51.04;98872.91;105870;1277;99212;-62
2022/07/14 00:57:03;;;;;;;3.90;2.10;;;;;;;21.28;51.14;98872.40;105853;1277;99326;-68
2022/07/14 00:59:30;;;;;;;5.60;2.30;;;;;;;21.33;51.03;98872.14;105867;1276;113409;-67
2022/07/14 01:02:00;;;;;;;4.40;2.00;;;;;;;21.37;51.01;98865.58;105918;1279;97796;-66
2022/07/14 01:04:29;;;;;;;6.60;2.60;;;;;;;21.40;51.01;98864.58;105984;1277;108435;-67
2022/07/14 01:06:58;;;;;;;7.60;2.20;;;;;;;21.43;50.80;98860.88;105990;1277;99466;-66
2022/07/14 01:09:27;;;;;;;5.20;2.30;;;;;;;21.47;50.94;98861.88;105988;1277;99177;-66
2022/07/14 01:11:55;;;;;;;6.10;2.40;;;;;;;21.49;50.74;98861.10;105893;1278;113721;-66
2022/07/14 01:14:24;;;;;;;7.00;2.60;;;;;;;21.50;50.75;98863.09;105927;1278;100043;-67
2022/07/14 01:16:56;;;;;;;6.40;2.10;;;;;;;21.52;50.76;98862.45;105871;1277;108232;-68
2022/07/14 01:19:25;;;;;;;6.20;2.60;;;;;;;21.54;50.63;98858.48;105903;1277;96728;-68
2022/07/14 01:21:56;;;;;;;5.20;2.50;;;;;;;21.54;50.34;98859.14;105938;1276;99259;-69
2022/07/14 01:24:26;;;;;;;5.20;2.20;;;;;;;21.54;50.51;98857.66;105981;1276;112661;-67
2022/07/14 01:26:56;;;;;;;9.20;2.60;;;;;;;21.54;50.39;98856.41;105899;1276;99933;-69
2022/07/14 01:29:26;;;;;;;4.30;2.60;;;;;;;21.54;50.17;98860.95;105880;1276;107511;-66
2022/07/14 01:31:54;;;;;;;7.50;2.70;;;;;;;21.54;50.30;98860.53;105888;1276;100056;-67
2022/07/14 01:34:22;;;;;;;6.70;2.40;;;;;;;21.55;50.21;98859.70;106008;1277;99226;-67
2022/07/14 01:36:52;;;;;;;6.60;2.30;;;;;;;21.57;50.03;98859.23;105984;1277;113362;-68
2022/07/14 01:39:20;;;;;;;6.00;2.30;;;;;;;21.57;50.19;98860.64;106008;1278;99209;-67
2022/07/14 01:41:50;;;;;;;6.20;2.70;;;;;;;21.58;50.01;98857.87;105888;1279;108291;-66
2022/07/14 01:44:17;;;;;;;7.90;2.40;;;;;;;21.59;50.06;98862.42;105908;1279;99333;-66
2022/07/14 01:46:48;;;;;;;8.50;2.40;;;;;;;21.60;49.92;98862.10;105901;1278;99305;-67
2022/07/14 01:49:17;;;;;;;5.90;2.60;;;;;;;21.60;49.89;98861.14;105941;1278;113150;-64
2022/07/14 01:51:45;;;;;;;5.60;2.60;;;;;;;21.60;49.67;98860.48;105900;1278;97568;-65
2022/07/14 01:54:15;;;;;;;6.20;2.40;;;;;;;21.60;50.00;98865.19;105868;1279;108336;-66
2022/07/14 01:56:44;;;;;;;7.30;2.60;;;;;;;21.59;49.54;98863.17;105825;1279;99330;-68
2022/07/14 01:59:13;;;;;;;10.50;3.00;;;;;;;21.58;49.67;98857.23;105867;1279;99312;-66
2022/07/14 02:01:43;;;;;;;5.50;2.80;;;;;;;21.58;49.57;98861.08;105904;1279;113016;-67
2022/07/14 02:04:15;;;;;;;4.40;2.30;;;;;;;21.58;49.55;98856.58;105880;1278;99249;-67
2022/07/14 02:06:49;;;;;;;7.60;2.60;;;;;;;21.57;49.46;98854.28;105820;1280;107740;-66
2022/07/14 02:09:21;;;;;;;7.00;2.70;;;;;;;21.57;49.46;98854.12;105904;1277;99225;-66
2022/07/14 02:14:36;;;;;;;6.70;2.70;;;;;;;21.56;49.30;98861.14;105845;1277;113249;-66
2022/07/14 02:17:05;;;;;;;6.30;2.60;;;;;;;21.54;49.10;98864.26;105851;1277;99320;-66
2022/07/14 02:19:32;;;;;;;4.10;2.40;;;;;;;21.51;49.06;98861.83;105917;1277;108356;-66
2022/07/14 02:22:01;;;;;;;7.40;2.50;;;;;;;21.50;49.07;98864.30;105879;1277;99234;-67
2022/07/14 02:24:28;;;;;;;8.40;3.20;;;;;;;21.50;49.27;98862.92;105895;1277;99236;-66
2022/07/14 02:27:01;;;;;;;7.50;2.90;;;;;;;21.48;49.15;98857.69;105947;1277;113334;-67
2022/07/14 02:29:29;;;;;;;5.40;2.20;;;;;;;21.47;49.17;98859.09;106040;1277;99215;-70
2022/07/14 02:31:56;;;;;;;8.10;3.10;;;;;;;21.46;49.15;98863.61;105981;1276;106639;-67
2022/07/14 02:34:24;;;;;;;7.10;2.50;;;;;;;21.43;48.87;98865.94;105911;1277;99309;-66
2022/07/14 02:36:52;;;;;;;7.10;2.60;;;;;;;21.40;48.98;98866.78;105905;1277;99301;-67
2022/07/14 02:39:21;;;;;;;7.10;2.90;;;;;;;21.37;48.97;98864.56;105953;1277;112532;-67
2022/07/14 02:41:50;;;;;;;5.90;2.90;;;;;;;21.36;48.79;98863.80;105932;1277;96564;-67
2022/07/14 02:44:20;;;;;;;6.20;2.60;;;;;;;21.36;49.03;98865.15;106039;1276;108340;-68
2022/07/14 02:46:49;;;;;;;6.80;2.60;;;;;;;21.34;48.97;98860.85;105908;1277;99317;-68
2022/07/14 02:49:18;;;;;;;5.10;2.80;;;;;;;21.33;49.02;98861.59;105924;1276;96715;-68
2022/07/14 02:51:47;;;;;;;7.20;2.80;;;;;;;21.31;48.79;98867.95;105914;1277;113341;-68
2022/07/14 02:54:15;;;;;;;6.10;2.70;;;;;;;21.29;48.80;98871.78;105909;1278;99330;-68
2022/07/14 02:56:43;;;;;;;7.30;2.70;;;;;;;21.27;48.80;98875.19;105896;1278;108336;-68
2022/07/14 02:59:14;;;;;;;9.20;3.00;;;;;;;21.25;48.55;98875.23;105902;1278;99348;-67
2022/07/14 03:01:43;;;;;;;6.90;2.80;;;;;;;21.22;48.63;98874.64;105956;1277;97912;-69
2022/07/14 03:04:12;;;;;;;8.90;2.80;;;;;;;21.22;48.54;98878.73;105933;1277;113331;-69
2022/07/14 03:06:41;;;;;;;4.90;2.70;;;;;;;21.21;48.67;98879.73;105946;1280;99336;-67
2022/07/14 03:09:11;;;;;;;9.60;2.90;;;;;;;21.19;48.52;98886.25;105963;1277;108344;-66
2022/07/14 03:11:38;;;;;;;5.10;2.40;;;;;;;21.17;48.54;98883.48;105835;1278;99470;-67
2022/07/14 03:14:06;;;;;;;5.10;2.70;;;;;;;21.16;48.46;98888.46;105911;1278;99323;-68
2022/07/14 03:16:34;;;;;;;7.70;3.00;;;;;;;21.15;48.51;98887.48;105916;1278;113265;-67
2022/07/14 03:19:03;;;;;;;9.60;3.60;;;;;;;21.13;48.44;98892.36;105932;1277;99349;-66
2022/07/14 03:21:32;;;;;;;6.20;3.10;;;;;;;21.11;48.39;98890.50;105875;1278;108457;-66
2022/07/14 03:24:02;;;;;;;6.60;2.70;;;;;;;21.09;48.51;98890.56;105971;1277;99234;-66
2022/07/14 03:26:30;;;;;;;9.20;2.90;;;;;;;21.06;48.30;98887.96;105905;1277;99320;-65
2022/07/14 03:28:59;;;;;;;8.10;2.90;;;;;;;21.03;48.36;98889.11;105946;1276;113270;-66
2022/07/14 03:31:29;;;;;;;7.90;2.50;;;;;;;20.98;48.37;98885.81;105928;1278;96726;-66
2022/07/14 03:33:58;;;;;;;8.70;2.90;;;;;;;20.95;48.31;98892.00;105894;1277;109286;-67
2022/07/14 03:36:26;;;;;;;7.00;2.70;;;;;;;20.91;48.40;98889.54;105998;1277;100369;-68
2022/07/14 03:38:53;;;;;;;7.00;2.60;;;;;;;20.88;48.29;98889.60;105880;1278;99342;-67
2022/07/14 03:41:21;;;;;;;7.50;2.60;;;;;;;20.85;48.43;98890.85;105924;1278;113412;-69
2022/07/14 03:43:49;;;;;;;5.00;2.70;;;;;;;20.81;48.50;98889.24;105964;1276;97780;-66
2022/07/14 03:46:17;;;;;;;9.70;2.80;;;;;;;20.79;48.50;98893.48;105893;1277;107375;-67
2022/07/14 03:48:47;;;;;;;7.80;2.60;;;;;;;20.76;48.44;98887.87;104643;1278;1614898;-65
2022/07/14 03:51:15;;;;;;;5.90;2.80;;;;;;;20.74;48.59;98889.22;105746;1277;96704;-66
2022/07/14 03:53:43;;;;;;;5.90;2.90;;;;;;;20.73;48.53;98890.48;105741;1277;113366;-67
2022/07/14 03:56:11;;;;;;;10.00;2.90;;;;;;;20.72;48.56;98891.84;105876;1277;99352;-66
2022/07/14 03:58:39;;;;;;;6.00;2.80;;;;;;;20.71;48.72;98893.02;105906;1277;108345;-67
2022/07/14 04:01:08;;;;;;;3.50;2.50;;;;;;;20.70;48.59;98893.35;105885;1278;96722;-67
2022/07/14 04:03:37;;;;;;;5.90;2.70;;;;;;;20.68;48.71;98892.03;105828;1277;99220;-66
2022/07/14 04:06:07;;;;;;;5.70;2.80;;;;;;;20.68;48.64;98896.39;105903;1277;113312;-67
2022/07/14 04:08:37;;;;;;;6.10;2.60;;;;;;;20.67;48.54;98892.36;105874;1277;99252;-69
2022/07/14 04:11:05;;;;;;;4.90;2.70;;;;;;;20.67;48.59;98892.15;105839;1277;108167;-69
2022/07/14 04:13:34;;;;;;;5.50;2.50;;;;;;;20.68;48.64;98893.52;105957;1278;99236;-70
2022/07/14 04:16:04;;;;;;;6.70;2.50;;;;;;;20.68;48.70;98893.49;105904;1277;99371;-70
2022/07/14 04:18:32;;;;;;;8.40;3.50;;;;;;;20.69;48.75;98891.98;105874;1277;112537;-69
2022/07/14 04:21:00;;;;;;;7.20;3.10;;;;;;;20.70;48.75;98890.80;105879;1277;97586;-69
2022/07/14 04:23:27;;;;;;;6.50;2.80;;;;;;;20.70;48.83;98893.64;105838;1278;108330;-68
2022/07/14 04:25:56;;;;;;;6.80;2.80;;;;;;;20.73;49.02;98899.30;105848;1277;99338;-68
2022/07/14 04:28:25;;;;;;;8.00;3.00;;;;;;;20.75;48.85;98899.75;105938;1278;96560;-68
2022/07/14 04:30:52;;;;;;;6.90;2.90;;;;;;;20.79;49.04;98891.20;105925;1277;113486;-69
2022/07/14 04:33:24;;;;;;;5.10;2.70;;;;;;;20.84;48.86;98894.10;105778;1277;99326;-70
2022/07/14 04:35:53;;;;;;;5.40;2.80;;;;;;;20.88;49.04;98893.96;105876;1277;106755;-66
2022/07/14 04:38:21;;;;;;;5.60;2.90;;;;;;;20.91;48.90;98892.98;105803;1278;96735;-66
2022/07/14 04:40:51;;;;;;;4.70;2.70;;;;;;;20.96;49.01;98895.27;105893;1276;99397;-66
2022/07/14 04:43:21;;;;;;;8.60;3.00;;;;;;;21.01;49.12;98895.42;105915;1277;112384;-66
2022/07/14 04:45:48;;;;;;;5.70;3.00;;;;;;;21.06;49.24;98895.72;105958;1277;97563;-66
2022/07/14 04:48:16;;;;;;;5.00;2.60;;;;;;;21.12;49.17;98894.67;105930;1278;107692;-66
2022/07/14 04:53:36;;;;;;;6.60;2.50;;;;;;;21.24;49.35;98893.94;105872;1278;99329;-67
2022/07/14 04:56:04;;;;;;;7.40;2.80;;;;;;;21.29;49.38;98893.15;105789;1278;113436;-66
2022/07/14 04:58:33;;;;;;;3.80;2.70;;;;;;;21.35;49.42;98893.78;105770;1277;101590;-66
2022/07/14 05:01:01;;;;;;;7.10;2.80;;;;;;;21.39;49.45;98896.15;105814;1277;108178;-66
2022/07/14 05:03:30;;;;;;;6.30;2.90;;;;;;;21.44;49.41;98895.69;105940;1277;99233;-67
2022/07/14 05:06:00;;;;;;;7.00;2.80;;;;;;;21.48;49.69;98893.08;105936;1277;99225;-66
2022/07/14 05:08:29;;;;;;;8.60;2.80;;;;;;;21.51;49.69;98888.77;105891;1277;113289;-66
2022/07/14 05:10:57;;;;;;;4.10;2.50;;;;;;;21.52;49.55;98882.27;105889;1278;100104;-66
2022/07/14 05:13:26;;;;;;;7.20;3.00;;;;;;;21.53;49.48;98881.77;105874;1277;107859;-66
2022/07/14 05:15:57;;;;;;;7.50;2.70;;;;;;;21.55;49.54;98880.86;105936;1277;100364;-66
2022/07/14 05:18:27;;;;;;;5.70;2.90;;;;;;;21.58;49.56;98881.23;105908;1277;99326;-68
2022/07/14 05:20:56;;;;;;;5.50;2.50;;;;;;;21.62;49.46;98883.16;105994;1277;113409;-69
2022/07/14 05:23:28;;;;;;;6.60;2.30;;;;;;;21.68;49.56;98881.54;106012;1278;99287;-69
2022/07/14 05:25:57;;;;;;;6.10;2.80;;;;;;;21.74;49.71;98877.00;105896;1277;107900;-68
2022/07/14 05:28:26;;;;;;;6.30;2.50;;;;;;;21.82;49.62;98877.67;105790;1277;96722;-68
2022/07/14 05:31:00;;;;;;;8.00;2.70;;;;;;;21.88;49.47;98875.77;105818;1277;99246;-68
2022/07/14 05:33:27;;;;;;;4.50;2.30;;;;;;;21.96;49.46;98879.02;105895;1277;112894;-69
2022/07/14 05:35:57;;;;;;;4.80;2.60;;;;;;;22.02;49.46;98877.00;105859;1278;100075;-69
2022/07/14 05:38:27;;;;;;;5.70;2.50;;;;;;;22.08;49.54;98867.41;105881;1277;108667;-68
2022/07/14 05:40:59;;;;;;;4.80;2.00;;;;;;;22.15;49.54;98863.73;105919;1277;96688;-68
2022/07/14 05:43:29;;;;;;;10.50;2.50;;;;;;;22.23;49.59;98860.52;105874;1278;99243;-68
2022/07/14 05:46:09;;;;;;;6.60;2.50;;;;;;;22.30;49.40;98858.55;105875;1277;111313;-67
2022/07/14 05:48:38;;;;;;;6.90;2.50;;;;;;;22.37;49.39;98860.49;105959;1277;99203;-69
2022/07/14 05:51:14;;;;;;;4.50;2.20;;;;;;;22.46;49.67;98860.51;105864;1277;107700;-69
2022/07/14 05:53:46;;;;;;;6.10;2.70;;;;;;;22.55;49.72;98859.36;105907;1277;99295;-69
2022/07/14 05:56:17;;;;;;;4.20;2.20;;;;;;;22.64;49.45;98858.71;105943;1277;99303;-72
2022/07/14 05:58:47;;;;;;;4.80;2.10;;;;;;;22.70;49.39;98851.39;105976;1277;112804;-69
2022/07/14 06:01:18;;;;;;;5.90;2.50;;;;;;;22.75;49.40;98852.36;106006;1276;98361;-69
2022/07/14 06:03:53;;;;;;;3.80;2.20;;;;;;;22.80;49.19;98851.39;105993;1277;108216;-68
2022/07/14 06:06:24;;;;;;;5.90;2.40;;;;;;;22.85;49.18;98855.02;106010;1276;99329;-67
2022/07/14 06:08:54;;;;;;;5.40;2.40;;;;;;;22.93;49.13;98851.40;105961;1276;99215;-69
2022/07/14 06:11:22;;;;;;;5.40;2.70;;;;;;;23.00;49.01;98852.33;105978;1276;113468;-68
2022/07/14 06:13:49;;;;;;;5.00;2.20;;;;;;;23.07;49.05;98850.82;106024;1277;99323;-69
2022/07/14 06:16:19;;;;;;;5.60;2.10;;;;;;;23.19;49.28;98850.59;105934;1276;108904;-68
2022/07/14 06:18:48;;;;;;;5.50;1.70;;;;;;;23.33;49.12;98853.15;106027;1277;99281;-68
2022/07/14 06:21:17;;;;;;;3.60;2.30;;;;;;;23.47;48.99;98851.64;105995;1277;96645;-69
2022/07/14 06:23:46;;;;;;;5.00;2.30;;;;;;;23.62;49.01;98857.05;105975;1276;113385;-69
2022/07/14 06:26:14;;;;;;;5.70;2.10;;;;;;;23.73;49.12;98858.27;105897;1277;97835;-68
2022/07/14 06:28:43;;;;;;;4.20;2.00;;;;;;;23.85;49.17;98860.28;105901;1277;108355;-71
2022/07/14 06:31:13;;;;;;;6.30;2.20;;;;;;;23.94;48.95;98856.59;105896;1277;99364;-70
2022/07/14 06:33:43;;;;;;;4.30;2.10;;;;;;;24.03;48.79;98856.45;105920;1278;97876;-70
2022/07/14 06:36:11;;;;;;;5.90;2.60;;;;;;;24.13;48.71;98855.55;105965;1277;113427;-69
2022/07/14 06:38:40;;;;;;;2.60;2.00;;;;;;;24.22;48.75;98852.90;105942;1278;98157;-70
2022/07/14 06:41:10;;;;;;;5.70;2.00;;;;;;;24.30;48.66;98849.65;105956;1277;108750;-68
2022/07/14 06:43:39;;;;;;;3.40;1.90;;;;;;;24.40;48.70;98849.83;106012;1276;96667;-68
2022/07/14 06:46:15;;;;;;;4.70;2.10;;;;;;;24.52;48.83;98855.44;106028;1277;99227;-69
2022/07/14 06:48:45;;;;;;;4.20;2.30;;;;;;;24.65;48.65;98852.23;105925;1277;113210;-69
2022/07/14 06:51:13;;;;;;;3.80;2.10;;;;;;;24.78;48.65;98848.66;105984;1276;99339;-69
2022/07/14 06:53:41;;;;;;;4.40;2.30;;;;;;;24.90;48.53;98845.64;105893;1277;108360;-68
2022/07/14 06:56:09;;;;;;;5.10;2.40;;;;;;;25.01;48.39;98845.09;105876;1277;99227;-68
2022/07/14 06:58:36;;;;;;;5.80;2.20;;;;;;;25.12;48.36;98841.92;105915;1277;99268;-69
2022/07/14 07:01:07;;;;;;;6.50;2.20;;;;;;;25.25;48.37;98837.67;105940;1277;113402;-66
2022/07/14 07:03:37;;;;;;;7.60;2.20;;;;;;;25.38;48.22;98838.60;105927;1277;99299;-69
2022/07/14 07:08:52;;;;;;;7.30;3.00;;;;;;;25.77;47.83;98841.61;105963;1277;96650;-69
2022/07/14 07:11:21;;;;;;;5.40;2.40;;;;;;;26.03;48.02;98836.25;105950;1277;99217;-69
2022/07/14 07:13:49;;;;;;;4.60;2.50;;;;;;;26.25;47.84;98837.37;105967;1277;113262;-70
2022/07/14 07:16:17;;;;;;;5.20;2.00;;;;;;;26.49;47.70;98835.68;105907;1277;99330;-70
2022/07/14 07:18:46;;;;;;;5.10;2.00;;;;;;;26.77;47.61;98834.25;105977;1277;107679;-71
2022/07/14 07:21:18;;;;;;;2.60;1.80;;;;;;;27.06;47.42;98831.94;106047;1277;99340;-69
2022/07/14 07:23:50;;;;;;;3.60;2.20;;;;;;;27.37;47.47;98832.42;106084;1276;99221;-68
2022/07/14 07:26:21;;;;;;;8.40;2.00;;;;;;;27.64;47.28;98827.46;106004;1276;112576;-69
2022/07/14 07:28:49;;;;;;;7.90;1.90;;;;;;;27.90;46.95;98830.48;105936;1277;99259;-69
2022/07/14 07:31:20;;;;;;;3.50;2.00;;;;;;;28.18;46.76;98832.77;105851;1277;108177;-69
2022/07/14 07:33:48;;;;;;;4.80;2.30;;;;;;;28.40;46.74;98831.94;105976;1277;96681;-69
2022/07/14 07:36:18;;;;;;;4.20;2.20;;;;;;;28.63;46.59;98832.20;105938;1277;99077;-69
2022/07/14 07:38:47;;;;;;;3.90;1.80;;;;;;;28.81;46.31;98829.05;105939;1276;113330;-68
2022/07/14 07:41:15;;;;;;;3.40;1.90;;;;;;;28.99;46.24;98834.69;105961;1277;100012;-69
2022/07/14 07:43:44;;;;;;;2.80;1.80;;;;;;;29.16;45.89;98839.89;105937;1276;108359;-69
2022/07/14 07:46:12;;;;;;;2.10;1.90;;;;;;;29.25;45.63;98841.34;105933;1276;99235;-69
2022/07/14 07:48:41;;;;;;;5.30;2.00;;;;;;;29.12;45.33;98840.61;105960;1276;99221;-69
2022/07/14 07:51:11;;;;;;;5.00;2.10;;;;;;;29.14;45.21;98844.70;105913;1277;113154;-68
2022/07/14 07:53:43;;;;;;;3.30;1.90;;;;;;;29.08;45.07;98839.37;105930;1276;99234;-69
2022/07/14 07:56:11;;;;;;;4.80;2.00;;;;;;;29.18;44.77;98833.95;105927;1276;107897;-69
2022/07/14 07:58:39;;;;;;;4.50;2.00;;;;;;;29.27;44.94;98834.55;105921;1277;99371;-68
2022/07/14 08:01:09;;;;;;;6.90;1.90;;;;;;;29.60;44.70;98838.87;105910;1276;99346;-68
2022/07/14 08:03:38;;;;;;;3.30;1.60;;;;;;;29.69;44.04;98840.25;105923;1277;113234;-69
2022/07/14 08:06:15;;;;;;;4.10;2.30;;;;;;;29.39;43.78;98835.02;105898;1277;99542;-70
2022/07/14 08:09:06;;;;;;;6.20;3.00;;;;;;;29.27;43.85;98832.36;105882;1277;108834;-69
2022/07/14 08:11:36;;;;;;;5.40;2.20;;;;;;;29.51;43.64;98826.96;105878;1277;99341;-69
2022/07/14 08:14:03;;;;;;;9.30;2.40;;;;;;;29.86;43.69;98823.94;105975;1277;99230;-72
2022/07/14 08:16:35;;;;;;;9.10;2.50;;;;;;;30.20;43.22;98829.70;105885;1277;113537;-70
2022/07/14 08:19:04;;;;;;;5.30;2.50;;;;;;;30.58;42.99;98827.48;105993;1276;99320;-70
2022/07/14 08:21:34;;;;;;;3.30;2.00;;;;;;;31.32;42.76;98823.73;105957;1277;108348;-68
2022/07/14 08:24:02;;;;;;;7.40;2.30;;;;;;;32.15;42.56;98820.65;105890;1277;99786;-68
2022/07/14 08:26:29;;;;;;;8.80;2.20;;;;;;;32.88;42.46;98821.89;105860;1277;99243;-69
2022/07/14 08:28:57;;;;;;;4.70;2.20;;;;;;;33.21;42.81;98821.61;105867;1277;113519;-69
2022/07/14 08:31:27;;;;;;;6.00;2.00;;;;;;;33.10;42.85;98826.56;105889;1277;99191;-69
2022/07/14 08:33:57;;;;;;;5.40;2.10;;;;;;;32.82;42.18;98823.84;105840;1277;109209;-68
2022/07/14 08:36:26;;;;;;;5.00;2.40;;;;;;;32.61;41.90;98821.25;105927;1276;99238;-68
2022/07/14 08:38:56;;;;;;;5.60;2.20;;;;;;;32.59;41.59;98815.23;105927;1276;99259;-69
2022/07/14 08:41:26;;;;;;;8.50;2.50;;;;;;;32.40;41.36;98819.19;105969;1276;113742;-68
2022/07/14 08:43:56;;;;;;;8.80;2.40;;;;;;;32.77;41.10;98817.57;106014;1276;99742;-69
2022/07/14 08:46:27;;;;;;;4.30;1.90;;;;;;;32.84;41.11;98813.92;105968;1277;106413;-69
2022/07/14 08:48:56;;;;;;;8.00;2.00;;;;;;;32.84;41.11;98817.57;105923;1276;99357;-71
2022/07/14 08:51:25;;;;;;;3.40;2.20;;;;;;;32.98;40.68;98812.94;105988;1276;99322;-69
2022/07/14 08:53:54;;;;;;;6.60;2.10;;;;;;;33.51;40.47;98809.27;105889;1277;113164;-69
2022/07/14 08:56:22;;;;;;;5.40;1.90;;;;;;;33.62;40.12;98809.52;105854;1277;97040;-69
2022/07/14 08:58:50;;;;;;;4.50;2.00;;;;;;;33.45;40.34;98806.44;105908;1277;108250;-69
2022/07/14 09:01:18;;;;;;;7.70;2.70;;;;;;;33.48;39.80;98808.97;105794;1276;98967;-69
2022/07/14 09:03:50;;;;;;;6.00;2.30;;;;;;;33.63;39.82;98808.15;105840;1277;97871;-69
2022/07/14 09:06:45;;;;;;;5.80;2.20;;;;;;;33.65;39.79;98800.87;105809;1276;112910;-70
2022/07/14 09:09:34;;;;;;;4.30;2.30;;;;;;;33.58;39.49;98801.86;105861;1277;99291;-69
2022/07/14 09:12:07;;;;;;;6.50;2.50;;;;;;;33.48;39.57;98805.00;105782;1277;108118;-69
2022/07/14 09:17:29;;;;;;;4.20;2.50;;;;;;;33.52;39.03;98806.71;105941;1277;96639;-68
2022/07/14 09:20:11;;;;;;;7.20;2.50;;;;;;;33.78;38.84;98801.02;105901;1277;113372;-70
2022/07/14 09:22:43;;;;;;;10.50;2.80;;;;;;;34.12;38.62;98796.21;105912;1277;99832;-69
2022/07/14 09:25:17;;;;;;;6.00;2.30;;;;;;;34.70;38.61;98789.94;105940;1276;107669;-70
2022/07/14 09:27:48;;;;;;;4.30;2.30;;;;;;;35.16;38.35;98790.36;105961;1276;99323;-69
2022/07/14 09:30:18;;;;;;;11.90;2.50;;;;;;;35.53;38.30;98786.47;105915;1277;96615;-69
2022/07/14 09:33:00;;;;;;;6.10;2.50;;;;;;;35.95;38.20;98788.32;105949;1277;113318;-68
2022/07/14 09:35:38;;;;;;;6.60;2.00;;;;;;;36.24;37.89;98784.73;105930;1278;99106;-69
2022/07/14 09:38:23;;;;;;;6.30;2.30;;;;;;;36.48;37.90;98787.05;105929;1276;108368;-69
2022/07/14 09:40:53;;;;;;;4.30;2.50;;;;;;;36.67;37.42;98795.30;105962;1276;96575;-69
2022/07/14 09:43:21;;;;;;;6.30;2.10;;;;;;;36.37;37.04;98791.50;106024;1276;99301;-70
2022/07/14 09:45:54;;;;;;;6.80;2.80;;;;;;;36.10;37.08;98793.76;105908;1277;113330;-70
2022/07/14 09:48:24;;;;;;;3.80;2.70;;;;;;;35.68;36.33;98789.51;105911;1276;99733;-70
2022/07/14 09:51:00;;;;;;;9.00;2.50;;;;;;;35.24;36.10;98799.95;105913;1277;109007;-68
2022/07/14 09:53:31;;;;;;;8.70;3.00;;;;;;;34.99;36.15;98794.67;105920;1276;99276;-70
2022/07/14 09:56:20;;;;;;;11.60;2.70;;;;;;;34.94;35.57;98792.45;105948;1276;99345;-69
2022/07/14 09:58:52;;;;;;;7.00;2.70;;;;;;;34.03;35.11;98795.13;105943;1276;113097;-69
2022/07/14 10:01:27;;;;;;;7.80;2.90;;;;;;;33.22;35.44;98796.59;105955;1276;99710;-70
2022/07/14 10:03:59;;;;;;;9.60;2.80;;;;;;;32.55;35.07;98791.24;105926;1276;108406;-69
2022/07/14 10:06:30;;;;;;;8.20;2.60;;;;;;;32.23;35.22;98794.53;105928;1276;99397;-69
2022/07/14 10:09:06;;;;;;;7.00;2.70;;;;;;;32.19;34.97;98790.98;105921;1277;97900;-69
2022/07/14 10:11:36;;;;;;;8.40;3.00;;;;;;;32.15;34.74;98789.18;105836;1278;112741;-68
2022/07/14 10:14:06;;;;;;;9.80;2.90;;;;;;;31.96;34.87;98790.25;105970;1276;99695;-71
2022/07/14 10:16:36;;;;;;;9.90;3.10;;;;;;;31.69;34.74;98790.06;105986;1276;107751;-68
2022/07/14 10:19:06;;;;;;;7.20;2.90;;;;;;;31.36;34.62;98795.48;105940;1276;99327;-70
2022/07/14 10:21:45;;;;;;;4.60;2.80;;;;;;;31.17;34.97;98791.63;105945;1276;96531;-70
2022/07/14 10:24:17;;;;;;;7.30;2.80;;;;;;;31.09;34.55;98790.61;105860;1277;112858;-69
2022/07/14 10:26:49;;;;;;;6.70;2.70;;;;;;;31.08;34.76;98786.80;106017;1277;97770;-68
2022/07/14 10:29:19;;;;;;;8.60;2.80;;;;;;;31.20;35.04;98778.64;105957;1277;106735;-69
2022/07/14 10:32:11;;;;;;;5.30;2.80;;;;;;;31.20;34.79;98783.58;105900;1276;98534;-68
2022/07/14 10:35:05;;;;;;;6.70;3.00;;;;;;;31.17;34.80;98796.00;105982;1276;99224;-67
2022/07/14 10:37:57;;;;;;;9.70;3.00;;;;;;;30.90;34.68;98794.45;105892;1276;112831;-67
2022/07/14 10:40:45;;;;;;;8.60;3.00;;;;;;;30.69;34.68;98791.34;105933;1277;99313;-69
2022/07/14 10:43:23;;;;;;;7.60;3.50;;;;;;;30.49;34.81;98787.77;105871;1277;108608;-68
2022/07/14 10:45:54;;;;;;;9.60;3.40;;;;;;;30.28;34.57;98791.08;105935;1277;99270;-68
2022/07/14 10:48:33;;;;;;;10.50;3.30;;;;;;;30.05;34.78;98794.15;105916;1278;99244;-69
2022/07/14 10:51:13;;;;;;;11.30;3.20;;;;;;;29.95;34.99;98796.41;106006;1276;113616;-69
2022/07/14 10:54:03;;;;;;;7.20;3.00;;;;;;;29.97;35.02;98790.30;106011;1276;97699;-69
2022/07/14 10:57:17;;;;;;;6.40;3.50;;;;;;;29.99;35.17;98791.20;105941;1276;108386;-69
2022/07/14 10:59:49;;;;;;;7.70;3.40;;;;;;;29.88;34.93;98785.42;105997;1276;98353;-68
2022/07/14 11:02:18;;;;;;;5.50;3.10;;;;;;;29.78;35.12;98783.88;106029;1276;97172;-69
2022/07/14 11:04:58;;;;;;;7.40;3.30;;;;;;;29.82;35.19;98782.63;106013;1276;113332;-69
2022/07/14 11:08:09;;;;;;;8.50;3.50;;;;;;;29.78;35.13;98778.80;106031;1277;99567;-69
2022/07/14 11:10:40;;;;;;;9.10;3.40;;;;;;;29.67;35.36;98771.59;105869;1276;108345;-70
2022/07/14 11:13:11;;;;;;;9.30;3.10;;;;;;;29.66;35.31;98769.13;105847;1277;99353;-68
2022/07/14 11:16:03;;;;;;;9.70;3.50;;;;;;;29.60;35.16;98771.20;105942;1276;99234;-67
2022/07/14 11:18:35;;;;;;;13.70;3.20;;;;;;;29.49;35.21;98764.23;105972;1276;112888;-68
2022/07/14 11:21:11;;;;;;;;;;;;;;;29.50;35.42;98758.90;105951;1277;99269;-68
2022/07/14 11:23:48;;;;;;;10.60;3.20;;;;;;;29.55;35.53;98754.61;105975;1277;107866;-69
2022/07/14 11:26:50;;;;;;;5.80;2.90;;;;;;;29.62;35.71;98759.89;105956;1276;99292;-70
2022/07/14 11:29:31;;;;;;;8.50;3.40;;;;;;;29.67;35.67;98758.95;105901;1277;99221;-68
2022/07/14 11:32:01;;;;;;;10.80;3.30;;;;;;;29.71;35.64;98762.63;106076;1276;112882;-68
2022/07/14 11:38:00;;;;;;;8.30;3.50;;;;;;;29.44;35.70;98763.91;105958;1276;108755;-68
2022/07/14 11:40:54;;;;;;;10.70;3.60;;;;;;;29.39;35.55;98759.91;105943;1276;99326;-68
2022/07/14 11:43:30;;;;;;;9.80;3.80;;;;;;;29.29;35.70;98761.84;105916;1276;99260;-72
2022/07/14 11:46:03;;;;;;;9.10;3.70;;;;;;;29.20;35.60;98762.30;105876;1276;113205;-69
2022/07/14 11:48:37;;;;;;;12.60;3.60;;;;;;;29.15;35.73;98760.66;105844;1277;99244;-68
2022/07/14 11:51:10;;;;;;;11.50;3.20;;;;;;;29.18;35.75;98764.49;105826;1277;107749;-69
2022/07/14 11:53:39;;;;;;;13.70;3.50;;;;;;;29.14;36.03;98768.25;105847;1277;99330;-69
2022/07/14 11:56:10;;;;;;;6.50;3.40;;;;;;;29.06;35.91;98767.89;105910;1277;96722;-68